createdAt,value
2024-02-27T00:01:50.902Z,101580.09
2024-02-27T00:04:37.697Z,101590.00
2024-02-27T00:07:26.588Z,101577.84
2024-02-27T00:10:15.322Z,101582.06
2024-02-27T00:13:03.218Z,101591.94
2024-02-27T00:15:51.052Z,101597.34
2024-02-27T00:18:37.691Z,101591.41
2024-02-27T00:21:24.159Z,101596.66
2024-02-27T00:24:10.960Z,101602.47
2024-02-27T00:26:58.762Z,101607.28
2024-02-27T00:29:45.403Z,101604.19
2024-02-27T00:32:31.691Z,101604.44
2024-02-27T00:35:18.484Z,101606.41
2024-02-27T00:38:05.445Z,101598.13
2024-02-27T00:40:52.126Z,101607.72
2024-02-27T00:43:40.115Z,101613.41
2024-02-27T00:46:26.596Z,101618.75
2024-02-27T00:49:13.427Z,101611.66
2024-02-27T00:51:59.976Z,101611.41
2024-02-27T00:54:46.637Z,101609.81
2024-02-27T00:57:33.379Z,101604.50
2024-02-27T01:00:21.476Z,101606.63
2024-02-27T01:03:08.454Z,101608.91
2024-02-27T01:05:54.887Z,101597.81
2024-02-27T01:08:41.553Z,101611.22
2024-02-27T01:11:28.093Z,101611.81
2024-02-27T01:14:14.555Z,101620.53
2024-02-27T01:17:02.628Z,101618.31
2024-02-27T01:19:49.375Z,101625.72
2024-02-27T01:22:35.916Z,101619.06
2024-02-27T01:25:22.409Z,101625.94
2024-02-27T01:28:09.076Z,101621.34
2024-02-27T01:30:55.681Z,101621.19
2024-02-27T01:33:44.329Z,101617.59
2024-02-27T01:36:32.231Z,101619.75
2024-02-27T01:39:18.844Z,101609.16
2024-02-27T01:42:05.802Z,101612.94
2024-02-27T01:44:53.853Z,101630.84
2024-02-27T01:47:40.570Z,101629.31
2024-02-27T01:50:28.733Z,101639.44
2024-02-27T01:53:15.737Z,101633.16
2024-02-27T01:56:02.906Z,101639.16
2024-02-27T01:58:49.457Z,101638.97
2024-02-27T02:01:37.112Z,101641.84
2024-02-27T02:04:23.935Z,101640.31
2024-02-27T02:07:12.117Z,101638.78
2024-02-27T02:09:59.729Z,101641.03
2024-02-27T02:12:46.667Z,101635.94
2024-02-27T02:15:33.218Z,101645.00
2024-02-27T02:18:19.882Z,101646.56
2024-02-27T02:21:07.974Z,101642.50
2024-02-27T02:23:56.276Z,101647.81
2024-02-27T02:26:43.237Z,101649.66
2024-02-27T02:29:29.926Z,101647.03
2024-02-27T02:32:16.226Z,101644.09
2024-02-27T02:35:02.777Z,101653.31
2024-02-27T02:37:51.399Z,101663.84
2024-02-27T02:40:38.079Z,101661.66
2024-02-27T02:43:24.823Z,101661.59
2024-02-27T02:46:11.253Z,101658.81
2024-02-27T02:49:02.420Z,101654.00
2024-02-27T02:51:49.178Z,101653.69
2024-02-27T02:54:37.174Z,101669.84
2024-02-27T02:57:23.501Z,101669.13
2024-02-27T03:00:10.901Z,101666.75
2024-02-27T03:02:57.707Z,101662.13
2024-02-27T03:05:44.281Z,101677.41
2024-02-27T03:08:30.884Z,101678.47
2024-02-27T03:11:19.634Z,101677.19
2024-02-27T03:14:07.588Z,101672.59
2024-02-27T03:16:55.437Z,101670.03
2024-02-27T03:19:42.164Z,101669.78
2024-02-27T03:22:28.847Z,101669.78
2024-02-27T03:25:15.316Z,101670.16
2024-02-27T03:28:03.379Z,101664.06
2024-02-27T03:30:50.048Z,101667.66
2024-02-27T03:33:36.691Z,101664.53
2024-02-27T03:36:23.203Z,101661.94
2024-02-27T03:39:10.421Z,101676.69
2024-02-27T03:41:57.106Z,101671.00
2024-02-27T03:44:47.466Z,101681.59
2024-02-27T03:47:34.514Z,101679.16
2024-02-27T03:50:21.178Z,101677.66
2024-02-27T03:53:08.135Z,101684.06
2024-02-27T03:55:54.536Z,101680.56
2024-02-27T03:58:41.239Z,101687.69
2024-02-27T04:01:29.086Z,101694.84
2024-02-27T04:04:15.692Z,101698.06
2024-02-27T04:07:02.422Z,101703.00
2024-02-27T04:09:48.915Z,101700.16
2024-02-27T04:12:35.789Z,101703.88
2024-02-27T04:15:22.836Z,101705.16
2024-02-27T04:18:10.950Z,101704.69
2024-02-27T04:20:57.649Z,101705.69
2024-02-27T04:23:44.108Z,101710.69
2024-02-27T04:26:30.460Z,101707.03
2024-02-27T04:29:16.912Z,101716.84
2024-02-27T04:32:04.145Z,101720.44
2024-02-27T04:34:52.155Z,101721.22
2024-02-27T04:37:38.777Z,101730.84
2024-02-27T04:40:25.563Z,101725.31
2024-02-27T04:43:12.223Z,101719.94
2024-02-27T04:45:58.666Z,101726.28
2024-02-27T04:48:45.551Z,101729.72
2024-02-27T04:51:33.368Z,101727.97
2024-02-27T04:54:19.781Z,101739.38
2024-02-27T04:57:07.095Z,101728.75
2024-02-27T04:59:53.653Z,101733.34
2024-02-27T05:02:40.754Z,101755.09
2024-02-27T05:05:27.369Z,101763.31
2024-02-27T05:08:15.588Z,101757.84
2024-02-27T05:11:01.955Z,101760.19
2024-02-27T05:13:48.448Z,101768.06
2024-02-27T05:16:34.868Z,101753.75
2024-02-27T05:19:21.572Z,101751.91
2024-02-27T05:22:07.968Z,101757.53
2024-02-27T05:24:56.076Z,101757.66
2024-02-27T05:27:42.822Z,101773.63
2024-02-27T05:30:29.438Z,101769.84
2024-02-27T05:33:16.054Z,101780.72
2024-02-27T05:36:02.611Z,101790.16
2024-02-27T05:38:50.412Z,101785.75
2024-02-27T05:41:38.290Z,101787.59
2024-02-27T05:44:24.864Z,101785.81
2024-02-27T05:47:11.284Z,101788.09
2024-02-27T05:49:58.158Z,101789.47
2024-02-27T05:52:44.799Z,101785.34
2024-02-27T05:55:31.240Z,101776.16
2024-02-27T05:58:20.486Z,101783.28
2024-02-27T06:01:06.947Z,101794.25
2024-02-27T06:03:53.616Z,101788.44
2024-02-27T06:06:40.133Z,101787.47
2024-02-27T06:09:26.886Z,101776.19
2024-02-27T06:12:13.405Z,101780.66
2024-02-27T06:15:02.552Z,101786.69
2024-02-27T06:17:49.438Z,101793.91
2024-02-27T06:20:53.512Z,101793.81
2024-02-27T06:23:39.916Z,101798.03
2024-02-27T06:26:27.409Z,101792.59
2024-02-27T06:29:14.420Z,101797.50
2024-02-27T06:32:04.396Z,101794.91
2024-02-27T06:34:51.480Z,101793.63
2024-02-27T06:37:37.853Z,101796.84
2024-02-27T06:40:24.531Z,101796.72
2024-02-27T06:43:11.106Z,101796.53
2024-02-27T06:45:57.845Z,101787.81
2024-02-27T06:48:46.452Z,101787.31
2024-02-27T06:51:32.794Z,101789.22
2024-02-27T06:54:19.706Z,101791.91
2024-02-27T06:57:07.180Z,101793.47
2024-02-27T06:59:53.901Z,101795.53
2024-02-27T07:02:40.506Z,101810.94
2024-02-27T07:05:35.297Z,101804.53
2024-02-27T07:08:26.322Z,101793.47
2024-02-27T07:11:12.884Z,101802.06
2024-02-27T07:13:59.549Z,101806.75
2024-02-27T07:16:46.102Z,101819.41
2024-02-27T07:19:32.879Z,101830.00
2024-02-27T07:22:21.005Z,101836.13
2024-02-27T07:25:09.857Z,101846.72
2024-02-27T07:27:56.687Z,101838.84
2024-02-27T07:30:44.571Z,101839.13
2024-02-27T07:33:31.604Z,101841.09
2024-02-27T07:36:18.447Z,101842.94
2024-02-27T07:39:06.453Z,101857.66
2024-02-27T07:41:52.910Z,101850.31
2024-02-27T07:44:39.713Z,101860.66
2024-02-27T07:47:26.140Z,101860.28
2024-02-27T07:50:12.571Z,101863.19
2024-02-27T07:53:00.045Z,101862.09
2024-02-27T07:55:48.666Z,101858.00
2024-02-27T07:58:35.228Z,101860.97
2024-02-27T08:01:21.964Z,101869.16
2024-02-27T08:04:08.454Z,101868.41
2024-02-27T08:06:55.228Z,101882.06
2024-02-27T08:09:41.758Z,101872.09
2024-02-27T08:12:29.674Z,101889.09
2024-02-27T08:15:16.786Z,101891.69
2024-02-27T08:18:03.604Z,101903.59
2024-02-27T08:20:50.642Z,101906.06
2024-02-27T08:23:37.018Z,101905.59
2024-02-27T08:26:23.466Z,101903.59
2024-02-27T08:29:11.481Z,101888.13
2024-02-27T08:31:58.032Z,101903.34
2024-02-27T08:34:44.669Z,101901.97
2024-02-27T08:37:31.353Z,101915.19
2024-02-27T08:40:18.388Z,101903.28
2024-02-27T08:43:05.377Z,101901.25
2024-02-27T08:45:52.980Z,101900.47
2024-02-27T08:48:39.886Z,101895.44
2024-02-27T08:51:26.662Z,101893.72
2024-02-27T08:54:13.328Z,101885.22
2024-02-27T08:56:59.924Z,101883.13
2024-02-27T08:59:48.577Z,101877.84
2024-02-27T09:02:39.418Z,101888.56
2024-02-27T09:05:26.505Z,101877.00
2024-02-27T09:08:15.331Z,101877.38
2024-02-27T09:11:02.332Z,101880.59
2024-02-27T09:13:49.391Z,101873.63
2024-02-27T09:16:35.835Z,101875.41
2024-02-27T09:19:24.286Z,101880.44
2024-02-27T09:22:10.765Z,101879.44
2024-02-27T09:24:57.136Z,101876.16
2024-02-27T09:27:43.712Z,101868.06
2024-02-27T09:30:30.561Z,101878.38
2024-02-27T09:33:17.812Z,101886.06
2024-02-27T09:36:06.171Z,101883.66
2024-02-27T09:38:52.752Z,101886.44
2024-02-27T09:41:50.678Z,101891.81
2024-02-27T09:44:40.230Z,101886.38
2024-02-27T09:47:28.063Z,101897.75
2024-02-27T09:50:19.275Z,101898.78
2024-02-27T09:53:09.018Z,101898.34
2024-02-27T09:55:57.280Z,101898.31
2024-02-27T09:58:44.949Z,101902.56
2024-02-27T10:01:33.275Z,101888.91
2024-02-27T10:04:21.431Z,101899.63
2024-02-27T10:07:10.469Z,101900.72
2024-02-27T10:09:58.159Z,101896.13
2024-02-27T10:12:45.203Z,101898.97
2024-02-27T10:15:31.896Z,101901.00
2024-02-27T10:18:19.001Z,101899.91
2024-02-27T10:21:06.463Z,101898.31
2024-02-27T10:23:52.957Z,101893.09
2024-02-27T10:26:40.997Z,101902.59
2024-02-27T10:29:29.573Z,101897.19
2024-02-27T10:32:19.994Z,101889.50
2024-02-27T10:35:07.670Z,101891.84
2024-02-27T10:37:54.577Z,101889.44
2024-02-27T10:40:41.296Z,101885.59
2024-02-27T10:43:29.553Z,101893.88
2024-02-27T10:46:17.415Z,101896.03
2024-02-27T10:49:04.253Z,101901.94
2024-02-27T10:51:53.289Z,101904.31
2024-02-27T10:54:40.179Z,101902.34
2024-02-27T10:57:27.118Z,101896.03
2024-02-27T11:00:16.503Z,101894.16
2024-02-27T11:03:07.210Z,101893.16
2024-02-27T11:05:53.620Z,101897.56
2024-02-27T11:08:41.729Z,101896.47
2024-02-27T11:11:28.407Z,101890.13
2024-02-27T11:14:19.345Z,101884.13
2024-02-27T11:17:12.511Z,101874.47
2024-02-27T11:20:00.165Z,101872.59
2024-02-27T11:22:47.355Z,101868.56
2024-02-27T11:25:34.369Z,101868.72
2024-02-27T11:28:21.052Z,101867.31
2024-02-27T11:31:08.401Z,101865.66
2024-02-27T11:33:58.597Z,101862.75
2024-02-27T11:36:49.946Z,101849.56
2024-02-27T11:39:36.530Z,101852.22
2024-02-27T11:42:27.315Z,101841.59
2024-02-27T11:45:15.747Z,101850.19
2024-02-27T11:48:02.932Z,101853.59
2024-02-27T11:50:50.741Z,101854.31
2024-02-27T11:53:39.243Z,101848.13
2024-02-27T11:56:26.770Z,101851.41
2024-02-27T11:59:13.409Z,101847.19
2024-02-27T12:02:05.028Z,101842.81
2024-02-27T12:04:52.641Z,101844.28
2024-02-27T12:07:40.984Z,101842.03
2024-02-27T12:10:27.929Z,101843.78
2024-02-27T12:13:15.345Z,101838.53
2024-02-27T12:16:02.233Z,101838.91
2024-02-27T12:18:49.932Z,101832.59
2024-02-27T12:21:36.959Z,101830.47
2024-02-27T12:24:25.068Z,101819.16
2024-02-27T12:27:11.879Z,101820.81
2024-02-27T12:29:58.844Z,101815.09
2024-02-27T12:32:46.734Z,101814.94
2024-02-27T12:35:33.639Z,101819.22
2024-02-27T12:38:20.408Z,101820.53
2024-02-27T12:41:09.022Z,101808.84
2024-02-27T12:43:55.903Z,101811.91
2024-02-27T12:46:42.689Z,101815.59
2024-02-27T12:49:29.690Z,101810.81
2024-02-27T12:52:17.925Z,101797.25
2024-02-27T12:55:06.289Z,101803.09
2024-02-27T12:57:54.728Z,101792.34
2024-02-27T13:00:41.102Z,101792.50
2024-02-27T13:03:28.040Z,101787.03
2024-02-27T13:06:15.765Z,101779.47
2024-02-27T13:09:04.201Z,101781.63
2024-02-27T13:11:50.958Z,101781.50
2024-02-27T13:14:38.860Z,101779.78
2024-02-27T13:17:25.575Z,101773.44
2024-02-27T13:20:13.290Z,101778.41
2024-02-27T13:23:05.797Z,101777.53
2024-02-27T13:26:01.625Z,101777.91
2024-02-27T13:28:48.727Z,101774.13
2024-02-27T13:31:37.265Z,101776.91
2024-02-27T13:34:24.069Z,101783.22
2024-02-27T13:37:10.741Z,101783.09
2024-02-27T13:39:57.476Z,101779.53
2024-02-27T13:42:44.181Z,101774.78
2024-02-27T13:45:30.772Z,101772.56
2024-02-27T13:48:19.061Z,101762.34
2024-02-27T13:51:06.553Z,101765.53
2024-02-27T13:53:53.233Z,101765.97
2024-02-27T13:56:39.920Z,101759.41
2024-02-27T13:59:26.555Z,101759.06
2024-02-27T14:02:13.143Z,101764.44
2024-02-27T14:05:01.262Z,101763.06
2024-02-27T14:07:49.384Z,101764.91
2024-02-27T14:10:39.302Z,101763.84
2024-02-27T14:13:26.225Z,101758.63
2024-02-27T14:16:13.166Z,101752.28
2024-02-27T14:19:00.213Z,101755.84
2024-02-27T14:21:48.365Z,101752.28
2024-02-27T14:24:34.879Z,101742.59
2024-02-27T14:27:21.550Z,101752.09
2024-02-27T14:30:09.787Z,101747.66
2024-02-27T14:32:56.632Z,101751.28
2024-02-27T14:35:43.095Z,101757.81
2024-02-27T14:38:31.641Z,101753.66
2024-02-27T14:41:18.045Z,101760.84
2024-02-27T14:44:08.733Z,101764.19
2024-02-27T14:46:55.784Z,101759.63
2024-02-27T14:49:43.580Z,101765.13
2024-02-27T14:52:30.500Z,101764.16
2024-02-27T14:55:18.643Z,101769.75
2024-02-27T14:58:05.824Z,101770.59
2024-02-27T15:00:52.880Z,101775.97
2024-02-27T15:03:39.564Z,101771.59
2024-02-27T15:06:26.232Z,101773.97
2024-02-27T15:09:13.173Z,101779.78
2024-02-27T15:12:06.599Z,101774.59
2024-02-27T15:14:53.275Z,101768.22
2024-02-27T15:17:40.009Z,101768.78
2024-02-27T15:20:27.042Z,101772.75
2024-02-27T15:23:13.475Z,101765.28
2024-02-27T15:26:00.049Z,101772.03
2024-02-27T15:28:48.096Z,101767.78
2024-02-27T15:31:34.942Z,101775.38
2024-02-27T15:34:21.683Z,101778.00
2024-02-27T15:37:08.678Z,101776.63
2024-02-27T15:39:55.665Z,101774.69
2024-02-27T15:42:42.244Z,101769.09
2024-02-27T15:45:30.730Z,101769.81
2024-02-27T15:48:17.476Z,101777.63
2024-02-27T15:51:04.169Z,101768.44
2024-02-27T15:53:52.058Z,101774.38
2024-02-27T15:56:38.732Z,101773.56
2024-02-27T15:59:25.261Z,101770.81
2024-02-27T16:02:13.306Z,101772.84
2024-02-27T16:05:01.020Z,101778.25
2024-02-27T16:07:50.009Z,101782.69
2024-02-27T16:10:37.233Z,101773.25
2024-02-27T16:13:23.972Z,101771.56
2024-02-27T16:16:10.483Z,101771.47
2024-02-27T16:18:58.570Z,101772.53
2024-02-27T16:21:45.804Z,101776.91
2024-02-27T16:24:35.814Z,101777.63
2024-02-27T16:27:22.269Z,101788.75
2024-02-27T16:30:10.624Z,101788.78
2024-02-27T16:32:57.456Z,101794.63
2024-02-27T16:35:45.800Z,101796.75
2024-02-27T16:38:33.023Z,101792.88
2024-02-27T16:41:19.766Z,101793.75
2024-02-27T16:44:07.593Z,101795.31
2024-02-27T16:46:55.700Z,101793.19
2024-02-27T16:49:42.510Z,101800.38
2024-02-27T16:52:30.325Z,101791.38
2024-02-27T16:55:17.050Z,101789.09
2024-02-27T16:58:04.115Z,101791.81
2024-02-27T17:00:50.725Z,101800.00
2024-02-27T17:03:38.648Z,101807.53
2024-02-27T17:06:27.627Z,101806.38
2024-02-27T17:09:17.360Z,101815.75
2024-02-27T17:12:03.875Z,101816.22
2024-02-27T17:14:50.411Z,101812.22
2024-02-27T17:17:37.203Z,101810.44
2024-02-27T17:20:24.406Z,101809.94
2024-02-27T17:23:16.739Z,101808.09
2024-02-27T17:26:06.159Z,101811.06
2024-02-27T17:28:52.965Z,101816.75
2024-02-27T17:31:39.780Z,101819.84
2024-02-27T17:34:27.384Z,101819.72
2024-02-27T17:37:14.130Z,101823.19
2024-02-27T17:40:00.977Z,101824.03
2024-02-27T17:42:48.975Z,101826.91
2024-02-27T17:45:35.744Z,101832.31
2024-02-27T17:48:22.698Z,101834.69
2024-02-27T17:51:09.378Z,101831.06
2024-02-27T17:53:56.204Z,101830.13
2024-02-27T17:56:43.116Z,101824.56
2024-02-27T17:59:31.434Z,101824.16
2024-02-27T18:02:17.804Z,101823.47
2024-02-27T18:05:04.593Z,101830.00
2024-02-27T18:07:51.265Z,101836.28
2024-02-27T18:10:37.838Z,101837.97
2024-02-27T18:13:24.511Z,101842.50
2024-02-27T18:16:14.163Z,101855.38
2024-02-27T18:19:00.754Z,101858.53
2024-02-27T18:21:47.375Z,101849.97
2024-02-27T18:24:34.032Z,101870.34
2024-02-27T18:27:21.829Z,101866.34
2024-02-27T18:30:11.288Z,101863.28
2024-02-27T18:32:59.319Z,101860.63
2024-02-27T18:35:48.749Z,101859.41
2024-02-27T18:38:35.277Z,101858.81
2024-02-27T18:41:21.889Z,101861.94
2024-02-27T18:44:08.508Z,101864.84
2024-02-27T18:46:56.185Z,101872.56
2024-02-27T18:49:44.309Z,101871.84
2024-02-27T18:52:30.941Z,101865.25
2024-02-27T18:55:17.609Z,101861.19
2024-02-27T18:58:06.893Z,101873.22
2024-02-27T19:00:53.870Z,101872.03
2024-02-27T19:03:40.523Z,101873.25
2024-02-27T19:06:28.150Z,101866.56
2024-02-27T19:09:15.069Z,101873.34
2024-02-27T19:12:01.857Z,101875.78
2024-02-27T19:14:48.934Z,101882.66
2024-02-27T19:17:35.674Z,101882.00
2024-02-27T19:20:22.197Z,101883.63
2024-02-27T19:23:09.965Z,101885.81
2024-02-27T19:25:56.957Z,101892.19
2024-02-27T19:28:44.562Z,101893.84
2024-02-27T19:31:32.656Z,101886.50
2024-02-27T19:34:19.490Z,101894.06
2024-02-27T19:37:06.668Z,101891.38
2024-02-27T19:39:54.252Z,101901.47
2024-02-27T19:42:42.177Z,101902.69
2024-02-27T19:45:28.817Z,101905.13
2024-02-27T19:48:15.556Z,101907.75
2024-02-27T19:51:01.977Z,101902.34
2024-02-27T19:53:49.831Z,101908.28
2024-02-27T19:56:37.906Z,101922.41
2024-02-27T19:59:24.402Z,101919.31
2024-02-27T20:02:11.197Z,101917.75
2024-02-27T20:04:57.799Z,101907.94
2024-02-27T20:07:44.422Z,101893.50
2024-02-27T20:10:31.342Z,101889.72
2024-02-27T20:13:21.147Z,101893.81
2024-02-27T20:16:07.841Z,101897.56
2024-02-27T20:18:56.065Z,101903.44
2024-02-27T20:21:43.032Z,101907.63
2024-02-27T20:24:29.359Z,101896.25
2024-02-27T20:27:16.073Z,101905.19
2024-02-27T20:30:05.786Z,101907.38
2024-02-27T20:32:52.481Z,101909.09
2024-02-27T20:35:39.192Z,101913.75
2024-02-27T20:38:25.735Z,101917.78
2024-02-27T20:41:12.620Z,101934.66
2024-02-27T20:43:59.185Z,101936.13
2024-02-27T20:46:46.903Z,101946.47
2024-02-27T20:49:33.492Z,101955.75
2024-02-27T20:52:19.972Z,101963.13
2024-02-27T20:55:08.070Z,101958.69
2024-02-27T20:57:55.603Z,101965.00
2024-02-27T21:00:42.194Z,101951.94
2024-02-27T21:03:30.769Z,101954.22
2024-02-27T21:06:17.399Z,101962.34
2024-02-27T21:09:05.971Z,101964.47
2024-02-27T21:11:52.401Z,101971.78
2024-02-27T21:14:39.035Z,101963.63
2024-02-27T21:17:26.873Z,101977.66
2024-02-27T21:20:15.046Z,101971.34
2024-02-27T21:23:01.889Z,101971.38
2024-02-27T21:25:48.847Z,101970.91
2024-02-27T21:28:35.689Z,101970.63
2024-02-27T21:31:22.227Z,101969.28
2024-02-27T21:34:09.352Z,101968.81
2024-02-27T21:36:58.017Z,101966.44
2024-02-27T21:39:44.350Z,101964.34
2024-02-27T21:42:31.023Z,101960.22
2024-02-27T21:45:18.174Z,101968.16
2024-02-27T21:48:05.579Z,101961.38
2024-02-27T21:50:52.058Z,101961.38
2024-02-27T21:53:40.122Z,101965.91
2024-02-27T21:56:26.679Z,101962.97
2024-02-27T21:59:15.313Z,101961.97
2024-02-27T22:02:01.915Z,101961.06
2024-02-27T22:04:48.729Z,101956.97
2024-02-27T22:07:35.495Z,101955.69
2024-02-27T22:10:23.855Z,101957.84
2024-02-27T22:13:10.359Z,101959.97
2024-02-27T22:15:57.200Z,101961.97
2024-02-27T22:18:43.738Z,101960.38
2024-02-27T22:21:30.469Z,101961.63
2024-02-27T22:24:19.752Z,101970.03
2024-02-27T22:27:07.649Z,101972.88
2024-02-27T22:29:54.248Z,101968.78
2024-02-27T22:32:40.836Z,101965.22
2024-02-27T22:35:27.511Z,101967.75
2024-02-27T22:38:14.047Z,101974.09
2024-02-27T22:41:02.410Z,101974.53
2024-02-27T22:43:49.965Z,101959.97
2024-02-27T22:46:36.526Z,101959.53
2024-02-27T22:49:23.199Z,101970.31
2024-02-27T22:52:09.881Z,101966.72
2024-02-27T22:54:56.538Z,101969.84
2024-02-27T22:57:44.331Z,101965.44
2024-02-27T23:00:33.017Z,101959.34
2024-02-27T23:03:19.681Z,101956.59
2024-02-27T23:06:06.600Z,101945.81
2024-02-27T23:08:53.000Z,101943.75
2024-02-27T23:11:39.418Z,101944.38
2024-02-27T23:14:26.074Z,101953.84
2024-02-27T23:17:14.053Z,101958.50
2024-02-27T23:20:00.572Z,101950.44
2024-02-27T23:22:47.214Z,101956.59
2024-02-27T23:25:33.821Z,101968.19
2024-02-27T23:28:25.142Z,101956.56
2024-02-27T23:31:11.320Z,101957.41
2024-02-27T23:33:59.431Z,101948.53
2024-02-27T23:36:46.646Z,101943.66
2024-02-27T23:39:33.480Z,101949.22
2024-02-27T23:42:20.024Z,101950.66
2024-02-27T23:45:07.642Z,101948.97
2024-02-27T23:47:53.961Z,101954.66
2024-02-27T23:50:41.864Z,101959.69
2024-02-27T23:53:28.213Z,101959.97
2024-02-27T23:56:14.633Z,101952.78
2024-02-27T23:59:01.421Z,101966.31
